sensor_id;sensor_type;location;lat;lon;timestamp;P1;durP1;ratioP1;P2;durP2;ratioP2
55220;SDS011;41089;51.448;6.604;2022-07-06T00:05:21;4.82;;;2.55;;
55220;SDS011;41089;51.448;6.604;2022-07-06T00:11:22;7.27;;;2.73;;
55220;SDS011;41089;51.448;6.604;2022-07-06T00:17:23;8.40;;;2.85;;
55220;SDS011;41089;51.448;6.604;2022-07-06T00:23:23;4.88;;;2.55;;
55220;SDS011;41089;51.448;6.604;2022-07-06T00:29:24;4.20;;;2.45;;
55220;SDS011;41089;51.448;6.604;2022-07-06T00:35:24;3.05;;;2.33;;
55220;SDS011;41089;51.448;6.604;2022-07-06T00:41:25;6.60;;;2.90;;
55220;SDS011;41089;51.448;6.604;2022-07-06T00:47:26;6.53;;;2.60;;
55220;SDS011;41089;51.448;6.604;2022-07-06T00:53:26;4.27;;;2.50;;
55220;SDS011;41089;51.448;6.604;2022-07-06T00:59:27;3.08;;;2.42;;
55220;SDS011;41089;51.448;6.604;2022-07-06T01:05:28;5.07;;;2.78;;
55220;SDS011;41089;51.448;6.604;2022-07-06T01:11:29;4.22;;;3.05;;
55220;SDS011;41089;51.448;6.604;2022-07-06T01:17:31;6.10;;;3.15;;
55220;SDS011;41089;51.448;6.604;2022-07-06T01:23:32;4.45;;;2.80;;
55220;SDS011;41089;51.448;6.604;2022-07-06T01:29:33;4.80;;;3.23;;
55220;SDS011;41089;51.448;6.604;2022-07-06T01:35:34;4.03;;;3.40;;
55220;SDS011;41089;51.448;6.604;2022-07-06T01:41:35;5.00;;;3.60;;
55220;SDS011;41089;51.448;6.604;2022-07-06T01:47:36;5.95;;;3.30;;
55220;SDS011;41089;51.448;6.604;2022-07-06T01:53:37;4.07;;;3.50;;
55220;SDS011;41089;51.448;6.604;2022-07-06T01:59:38;3.92;;;3.53;;
55220;SDS011;41089;51.448;6.604;2022-07-06T02:05:38;7.27;;;4.20;;
55220;SDS011;41089;51.448;6.604;2022-07-06T02:11:38;7.27;;;4.00;;
55220;SDS011;41089;51.448;6.604;2022-07-06T02:17:39;9.10;;;3.90;;
55220;SDS011;41089;51.448;6.604;2022-07-06T02:23:39;6.40;;;4.25;;
55220;SDS011;41089;51.448;6.604;2022-07-06T02:29:40;5.60;;;3.67;;
55220;SDS011;41089;51.448;6.604;2022-07-06T02:41:42;10.15;;;4.10;;
55220;SDS011;41089;51.448;6.604;2022-07-06T02:53:43;4.65;;;4.00;;
55220;SDS011;41089;51.448;6.604;2022-07-06T02:59:43;5.33;;;3.90;;
55220;SDS011;41089;51.448;6.604;2022-07-06T03:05:44;8.63;;;4.28;;
55220;SDS011;41089;51.448;6.604;2022-07-06T03:11:46;5.07;;;4.20;;
55220;SDS011;41089;51.448;6.604;2022-07-06T03:17:49;6.53;;;4.10;;
55220;SDS011;41089;51.448;6.604;2022-07-06T03:23:50;5.03;;;4.22;;
55220;SDS011;41089;51.448;6.604;2022-07-06T03:29:50;4.55;;;3.63;;
55220;SDS011;41089;51.448;6.604;2022-07-06T03:49:04;5.38;;;3.70;;
55220;SDS011;41089;51.448;6.604;2022-07-06T04:02:02;7.40;;;4.15;;
55220;SDS011;41089;51.448;6.604;2022-07-06T04:08:02;9.13;;;4.65;;
55220;SDS011;41089;51.448;6.604;2022-07-06T04:14:03;6.30;;;4.03;;
55220;SDS011;41089;51.448;6.604;2022-07-06T04:20:03;7.47;;;3.87;;
55220;SDS011;41089;51.448;6.604;2022-07-06T04:26:04;7.28;;;4.20;;
55220;SDS011;41089;51.448;6.604;2022-07-06T04:32:05;6.60;;;3.70;;
55220;SDS011;41089;51.448;6.604;2022-07-06T04:38:06;5.18;;;3.90;;
55220;SDS011;41089;51.448;6.604;2022-07-06T04:44:06;10.30;;;3.80;;
55220;SDS011;41089;51.448;6.604;2022-07-06T04:50:07;4.53;;;3.27;;
55220;SDS011;41089;51.448;6.604;2022-07-06T04:56:07;5.38;;;4.13;;
55220;SDS011;41089;51.448;6.604;2022-07-06T05:02:08;6.70;;;4.47;;
55220;SDS011;41089;51.448;6.604;2022-07-06T05:08:08;7.05;;;3.88;;
55220;SDS011;41089;51.448;6.604;2022-07-06T05:14:09;5.63;;;3.60;;
55220;SDS011;41089;51.448;6.604;2022-07-06T05:20:10;6.53;;;3.80;;
55220;SDS011;41089;51.448;6.604;2022-07-06T05:26:10;5.27;;;3.63;;
55220;SDS011;41089;51.448;6.604;2022-07-06T05:32:11;5.07;;;3.70;;
55220;SDS011;41089;51.448;6.604;2022-07-06T05:44:11;8.43;;;3.97;;
55220;SDS011;41089;51.448;6.604;2022-07-06T05:50:12;6.70;;;3.40;;
55220;SDS011;41089;51.448;6.604;2022-07-06T05:56:12;5.07;;;3.53;;
55220;SDS011;41089;51.448;6.604;2022-07-06T06:02:12;6.00;;;3.28;;
55220;SDS011;41089;51.448;6.604;2022-07-06T06:08:13;7.18;;;3.85;;
55220;SDS011;41089;51.448;6.604;2022-07-06T06:14:13;6.85;;;3.92;;
55220;SDS011;41089;51.448;6.604;2022-07-06T06:20:14;10.40;;;3.37;;
55220;SDS011;41089;51.448;6.604;2022-07-06T06:26:15;7.28;;;3.25;;
55220;SDS011;41089;51.448;6.604;2022-07-06T06:32:15;5.47;;;3.00;;
55220;SDS011;41089;51.448;6.604;2022-07-06T06:38:16;6.13;;;3.00;;
55220;SDS011;41089;51.448;6.604;2022-07-06T06:44:18;7.15;;;3.30;;
55220;SDS011;41089;51.448;6.604;2022-07-06T06:50:18;2.87;;;2.60;;
55220;SDS011;41089;51.448;6.604;2022-07-06T06:56:18;7.87;;;3.30;;
55220;SDS011;41089;51.448;6.604;2022-07-06T07:02:19;6.57;;;2.70;;
55220;SDS011;41089;51.448;6.604;2022-07-06T07:08:19;5.37;;;2.30;;
55220;SDS011;41089;51.448;6.604;2022-07-06T07:14:20;3.47;;;2.40;;
55220;SDS011;41089;51.448;6.604;2022-07-06T07:20:20;6.30;;;1.92;;
55220;SDS011;41089;51.448;6.604;2022-07-06T07:26:21;3.03;;;1.77;;
55220;SDS011;41089;51.448;6.604;2022-07-06T07:32:21;2.97;;;2.00;;
55220;SDS011;41089;51.448;6.604;2022-07-06T07:38:22;3.67;;;1.93;;
55220;SDS011;41089;51.448;6.604;2022-07-06T07:44:22;3.53;;;1.55;;
55220;SDS011;41089;51.448;6.604;2022-07-06T07:50:24;3.78;;;1.67;;
55220;SDS011;41089;51.448;6.604;2022-07-06T07:56:26;2.80;;;1.17;;
55220;SDS011;41089;51.448;6.604;2022-07-06T08:02:27;2.78;;;1.27;;
55220;SDS011;41089;51.448;6.604;2022-07-06T08:08:27;4.67;;;1.50;;
55220;SDS011;41089;51.448;6.604;2022-07-06T08:14:28;5.32;;;1.30;;
55220;SDS011;41089;51.448;6.604;2022-07-06T08:20:28;3.03;;;1.08;;
55220;SDS011;41089;51.448;6.604;2022-07-06T08:26:29;3.80;;;1.15;;
55220;SDS011;41089;51.448;6.604;2022-07-06T08:32:30;1.08;;;0.52;;
55220;SDS011;41089;51.448;6.604;2022-07-06T08:38:31;3.97;;;0.82;;
55220;SDS011;41089;51.448;6.604;2022-07-06T08:44:31;3.10;;;0.80;;
55220;SDS011;41089;51.448;6.604;2022-07-06T08:50:35;2.13;;;0.85;;
55220;SDS011;41089;51.448;6.604;2022-07-06T08:56:36;1.40;;;0.63;;
55220;SDS011;41089;51.448;6.604;2022-07-06T09:02:37;2.50;;;1.00;;
55220;SDS011;41089;51.448;6.604;2022-07-06T09:08:40;2.20;;;0.73;;
55220;SDS011;41089;51.448;6.604;2022-07-06T09:14:40;1.98;;;0.80;;
55220;SDS011;41089;51.448;6.604;2022-07-06T09:20:41;5.63;;;1.00;;
55220;SDS011;41089;51.448;6.604;2022-07-06T09:26:42;3.45;;;1.02;;
55220;SDS011;41089;51.448;6.604;2022-07-06T09:32:43;3.37;;;1.23;;
55220;SDS011;41089;51.448;6.604;2022-07-06T09:38:45;1.17;;;0.60;;
55220;SDS011;41089;51.448;6.604;2022-07-06T09:44:46;1.93;;;0.80;;
55220;SDS011;41089;51.448;6.604;2022-07-06T09:56:54;2.63;;;0.98;;
55220;SDS011;41089;51.448;6.604;2022-07-06T10:02:55;3.83;;;0.95;;
55220;SDS011;41089;51.448;6.604;2022-07-06T10:08:57;1.80;;;0.70;;
55220;SDS011;41089;51.448;6.604;2022-07-06T10:14:58;0.73;;;0.50;;
55220;SDS011;41089;51.448;6.604;2022-07-06T10:20:59;1.30;;;0.68;;
55220;SDS011;41089;51.448;6.604;2022-07-06T10:26:59;2.95;;;1.00;;
55220;SDS011;41089;51.448;6.604;2022-07-06T10:33:00;1.83;;;0.80;;
55220;SDS011;41089;51.448;6.604;2022-07-06T10:39:01;4.00;;;1.15;;
55220;SDS011;41089;51.448;6.604;2022-07-06T10:51:28;3.63;;;1.00;;
55220;SDS011;41089;51.448;6.604;2022-07-06T10:57:31;3.72;;;1.42;;
55220;SDS011;41089;51.448;6.604;2022-07-06T11:09:59;3.95;;;1.52;;
55220;SDS011;41089;51.448;6.604;2022-07-06T11:16:02;3.30;;;1.15;;
55220;SDS011;41089;51.448;6.604;2022-07-06T11:22:06;2.15;;;1.00;;
55220;SDS011;41089;51.448;6.604;2022-07-06T11:28:09;2.28;;;0.60;;
55220;SDS011;41089;51.448;6.604;2022-07-06T11:34:17;2.40;;;1.00;;
55220;SDS011;41089;51.448;6.604;2022-07-06T11:40:19;2.85;;;0.93;;
55220;SDS011;41089;51.448;6.604;2022-07-06T11:46:23;2.80;;;0.90;;
55220;SDS011;41089;51.448;6.604;2022-07-06T11:52:28;2.08;;;0.98;;
55220;SDS011;41089;51.448;6.604;2022-07-06T11:58:30;3.15;;;1.30;;
55220;SDS011;41089;51.448;6.604;2022-07-06T12:04:33;1.75;;;0.88;;
55220;SDS011;41089;51.448;6.604;2022-07-06T12:10:35;2.03;;;0.77;;
55220;SDS011;41089;51.448;6.604;2022-07-06T12:16:37;2.50;;;0.80;;
55220;SDS011;41089;51.448;6.604;2022-07-06T12:22:39;3.63;;;0.85;;
55220;SDS011;41089;51.448;6.604;2022-07-06T12:28:39;1.73;;;0.70;;
55220;SDS011;41089;51.448;6.604;2022-07-06T12:34:40;1.50;;;0.68;;
55220;SDS011;41089;51.448;6.604;2022-07-06T12:40:41;1.97;;;0.80;;
55220;SDS011;41089;51.448;6.604;2022-07-06T12:46:41;2.50;;;1.00;;
55220;SDS011;41089;51.448;6.604;2022-07-06T12:52:42;2.40;;;0.95;;
55220;SDS011;41089;51.448;6.604;2022-07-06T12:58:55;3.57;;;1.03;;
55220;SDS011;41089;51.448;6.604;2022-07-06T13:04:58;1.90;;;0.77;;
55220;SDS011;41089;51.448;6.604;2022-07-06T13:11:03;2.38;;;0.77;;
55220;SDS011;41089;51.448;6.604;2022-07-06T13:17:04;1.83;;;0.70;;
55220;SDS011;41089;51.448;6.604;2022-07-06T13:23:04;2.97;;;1.00;;
55220;SDS011;41089;51.448;6.604;2022-07-06T13:29:05;3.27;;;1.00;;
55220;SDS011;41089;51.448;6.604;2022-07-06T13:35:06;4.95;;;0.63;;
55220;SDS011;41089;51.448;6.604;2022-07-06T13:41:06;5.60;;;0.90;;
55220;SDS011;41089;51.448;6.604;2022-07-06T13:47:07;3.80;;;1.07;;
55220;SDS011;41089;51.448;6.604;2022-07-06T13:53:08;7.35;;;1.08;;
55220;SDS011;41089;51.448;6.604;2022-07-06T13:59:08;2.43;;;0.70;;
55220;SDS011;41089;51.448;6.604;2022-07-06T14:05:09;9.35;;;1.65;;
55220;SDS011;41089;51.448;6.604;2022-07-06T14:11:09;1.88;;;0.70;;
55220;SDS011;41089;51.448;6.604;2022-07-06T14:17:10;2.20;;;0.77;;
55220;SDS011;41089;51.448;6.604;2022-07-06T14:23:13;3.38;;;0.77;;
55220;SDS011;41089;51.448;6.604;2022-07-06T14:29:13;2.03;;;0.73;;
55220;SDS011;41089;51.448;6.604;2022-07-06T14:35:14;3.03;;;0.90;;
55220;SDS011;41089;51.448;6.604;2022-07-06T14:41:14;3.42;;;0.80;;
55220;SDS011;41089;51.448;6.604;2022-07-06T14:47:15;2.33;;;0.90;;
55220;SDS011;41089;51.448;6.604;2022-07-06T14:53:15;3.03;;;0.93;;
55220;SDS011;41089;51.448;6.604;2022-07-06T14:59:16;3.72;;;1.00;;
55220;SDS011;41089;51.448;6.604;2022-07-06T15:05:17;3.20;;;0.93;;
55220;SDS011;41089;51.448;6.604;2022-07-06T15:11:17;3.23;;;0.70;;
55220;SDS011;41089;51.448;6.604;2022-07-06T15:17:17;2.05;;;0.70;;
55220;SDS011;41089;51.448;6.604;2022-07-06T15:23:19;1.05;;;0.70;;
55220;SDS011;41089;51.448;6.604;2022-07-06T15:29:19;2.45;;;0.77;;
55220;SDS011;41089;51.448;6.604;2022-07-06T15:35:20;2.67;;;0.90;;
55220;SDS011;41089;51.448;6.604;2022-07-06T15:41:20;3.90;;;0.77;;
55220;SDS011;41089;51.448;6.604;2022-07-06T15:47:21;3.13;;;0.80;;
55220;SDS011;41089;51.448;6.604;2022-07-06T15:53:23;2.28;;;0.65;;
55220;SDS011;41089;51.448;6.604;2022-07-06T15:59:24;5.10;;;0.90;;
55220;SDS011;41089;51.448;6.604;2022-07-06T16:05:24;2.87;;;0.83;;
55220;SDS011;41089;51.448;6.604;2022-07-06T16:11:25;2.35;;;0.80;;
55220;SDS011;41089;51.448;6.604;2022-07-06T16:17:25;4.13;;;0.82;;
55220;SDS011;41089;51.448;6.604;2022-07-06T16:23:25;3.53;;;1.08;;
55220;SDS011;41089;51.448;6.604;2022-07-06T16:29:26;4.23;;;0.77;;
55220;SDS011;41089;51.448;6.604;2022-07-06T16:35:26;2.17;;;0.82;;
55220;SDS011;41089;51.448;6.604;2022-07-06T16:41:29;2.10;;;0.60;;
55220;SDS011;41089;51.448;6.604;2022-07-06T16:47:29;1.55;;;0.85;;
55220;SDS011;41089;51.448;6.604;2022-07-06T16:53:30;3.88;;;0.82;;
55220;SDS011;41089;51.448;6.604;2022-07-06T16:59:30;3.50;;;1.10;;
55220;SDS011;41089;51.448;6.604;2022-07-06T17:05:31;4.70;;;1.27;;
55220;SDS011;41089;51.448;6.604;2022-07-06T17:11:31;6.33;;;1.00;;
55220;SDS011;41089;51.448;6.604;2022-07-06T17:17:32;2.27;;;1.00;;
55220;SDS011;41089;51.448;6.604;2022-07-06T17:23:32;2.22;;;0.80;;
55220;SDS011;41089;51.448;6.604;2022-07-06T17:29:32;2.93;;;0.90;;
55220;SDS011;41089;51.448;6.604;2022-07-06T17:35:33;4.13;;;1.73;;
55220;SDS011;41089;51.448;6.604;2022-07-06T17:41:34;3.35;;;1.42;;
55220;SDS011;41089;51.448;6.604;2022-07-06T17:47:34;5.97;;;1.17;;
55220;SDS011;41089;51.448;6.604;2022-07-06T17:53:34;3.77;;;1.10;;
55220;SDS011;41089;51.448;6.604;2022-07-06T17:59:35;4.83;;;0.97;;
55220;SDS011;41089;51.448;6.604;2022-07-06T18:05:36;2.30;;;0.88;;
55220;SDS011;41089;51.448;6.604;2022-07-06T18:11:37;4.35;;;1.20;;
55220;SDS011;41089;51.448;6.604;2022-07-06T18:17:37;2.20;;;1.00;;
55220;SDS011;41089;51.448;6.604;2022-07-06T18:23:38;5.40;;;1.00;;
55220;SDS011;41089;51.448;6.604;2022-07-06T18:29:38;2.75;;;0.98;;
55220;SDS011;41089;51.448;6.604;2022-07-06T18:35:39;1.83;;;0.73;;
55220;SDS011;41089;51.448;6.604;2022-07-06T18:41:39;3.08;;;1.30;;
55220;SDS011;41089;51.448;6.604;2022-07-06T18:47:40;5.50;;;1.20;;
55220;SDS011;41089;51.448;6.604;2022-07-06T18:53:40;2.67;;;1.30;;
55220;SDS011;41089;51.448;6.604;2022-07-06T18:59:40;3.27;;;1.37;;
55220;SDS011;41089;51.448;6.604;2022-07-06T19:05:43;3.15;;;1.30;;
55220;SDS011;41089;51.448;6.604;2022-07-06T19:11:44;5.63;;;1.57;;
55220;SDS011;41089;51.448;6.604;2022-07-06T19:17:44;3.17;;;1.15;;
55220;SDS011;41089;51.448;6.604;2022-07-06T19:23:46;3.85;;;1.60;;
55220;SDS011;41089;51.448;6.604;2022-07-06T19:29:47;3.07;;;1.53;;
55220;SDS011;41089;51.448;6.604;2022-07-06T19:35:47;4.27;;;1.20;;
55220;SDS011;41089;51.448;6.604;2022-07-06T19:41:48;2.45;;;1.40;;
55220;SDS011;41089;51.448;6.604;2022-07-06T19:47:48;2.40;;;1.20;;
55220;SDS011;41089;51.448;6.604;2022-07-06T19:53:49;2.80;;;0.98;;
55220;SDS011;41089;51.448;6.604;2022-07-06T19:59:52;3.55;;;1.30;;
55220;SDS011;41089;51.448;6.604;2022-07-06T20:05:52;5.43;;;1.92;;
55220;SDS011;41089;51.448;6.604;2022-07-06T20:11:53;3.13;;;1.63;;
55220;SDS011;41089;51.448;6.604;2022-07-06T20:17:54;5.25;;;1.65;;
55220;SDS011;41089;51.448;6.604;2022-07-06T20:23:54;6.35;;;2.28;;
55220;SDS011;41089;51.448;6.604;2022-07-06T20:29:54;3.43;;;1.20;;
55220;SDS011;41089;51.448;6.604;2022-07-06T20:35:55;5.57;;;1.48;;
55220;SDS011;41089;51.448;6.604;2022-07-06T20:41:55;5.13;;;1.80;;
55220;SDS011;41089;51.448;6.604;2022-07-06T20:47:56;3.15;;;1.25;;
55220;SDS011;41089;51.448;6.604;2022-07-06T20:53:56;4.15;;;1.60;;
55220;SDS011;41089;51.448;6.604;2022-07-06T20:59:57;6.20;;;1.50;;
55220;SDS011;41089;51.448;6.604;2022-07-06T21:05:57;2.72;;;1.45;;
55220;SDS011;41089;51.448;6.604;2022-07-06T21:11:57;5.17;;;1.80;;
55220;SDS011;41089;51.448;6.604;2022-07-06T21:17:58;2.45;;;1.45;;
55220;SDS011;41089;51.448;6.604;2022-07-06T21:23:58;3.13;;;1.70;;
55220;SDS011;41089;51.448;6.604;2022-07-06T21:29:58;3.95;;;1.70;;
55220;SDS011;41089;51.448;6.604;2022-07-06T21:35:59;2.37;;;1.53;;
55220;SDS011;41089;51.448;6.604;2022-07-06T21:41:59;3.07;;;1.70;;
55220;SDS011;41089;51.448;6.604;2022-07-06T21:48:00;5.13;;;2.03;;
55220;SDS011;41089;51.448;6.604;2022-07-06T21:54:01;7.28;;;1.95;;
55220;SDS011;41089;51.448;6.604;2022-07-06T22:00:01;4.78;;;1.77;;
55220;SDS011;41089;51.448;6.604;2022-07-06T22:06:04;6.47;;;2.40;;
55220;SDS011;41089;51.448;6.604;2022-07-06T22:12:05;6.47;;;2.10;;
55220;SDS011;41089;51.448;6.604;2022-07-06T22:18:06;5.38;;;2.53;;
55220;SDS011;41089;51.448;6.604;2022-07-06T22:24:06;4.43;;;2.30;;
55220;SDS011;41089;51.448;6.604;2022-07-06T22:30:07;4.43;;;2.40;;
55220;SDS011;41089;51.448;6.604;2022-07-06T22:36:08;5.80;;;2.42;;
55220;SDS011;41089;51.448;6.604;2022-07-06T22:42:08;5.38;;;2.60;;
55220;SDS011;41089;51.448;6.604;2022-07-06T22:48:09;4.20;;;2.42;;
55220;SDS011;41089;51.448;6.604;2022-07-06T22:54:09;3.88;;;2.33;;
55220;SDS011;41089;51.448;6.604;2022-07-06T23:00:10;5.47;;;2.17;;
55220;SDS011;41089;51.448;6.604;2022-07-06T23:06:11;5.65;;;1.80;;
55220;SDS011;41089;51.448;6.604;2022-07-06T23:12:11;4.60;;;1.70;;
55220;SDS011;41089;51.448;6.604;2022-07-06T23:18:13;4.22;;;1.80;;
55220;SDS011;41089;51.448;6.604;2022-07-06T23:24:13;7.07;;;1.93;;
55220;SDS011;41089;51.448;6.604;2022-07-06T23:30:14;3.22;;;1.77;;
55220;SDS011;41089;51.448;6.604;2022-07-06T23:36:14;5.90;;;2.33;;
55220;SDS011;41089;51.448;6.604;2022-07-06T23:42:14;7.65;;;2.50;;
55220;SDS011;41089;51.448;6.604;2022-07-06T23:48:15;8.65;;;2.78;;
55220;SDS011;41089;51.448;6.604;2022-07-06T23:54:15;6.43;;;2.72;;
